Allen Jay, North Carolina
Current Conditions -  °F | °C
As of 7:54 AM on Friday 24 Oct 2014 (Local Time) from KGSO Reporting Station
Broken Clouds Broken Clouds  
Wind Chill:   Ceiling: 25000
Heat Index:   Visibility: 10mi
Dew Point:   Wind: 5mph
Humidity: 82%   Direction: 10°N
Pressure: 30.03"   Gusts: NA
Location:  35.9136°N, 79.9465°W
Report Text: KGSO 241154Z 01004KT 10SM BKN250 07/04 A3003 RMK AO2 SLP169 T00720044 10094 20056 52003
Loading
Personal Weather Stations






























Interactive Weather Map New forecast layout! Learn more

10-Day Weather Forecast

Advertisements
Track Severe Weather on mobile